createdAt,value
2023-03-29T00:00:00.416Z,4.25
2023-03-29T00:02:33.579Z,4.55
2023-03-29T00:05:04.851Z,4.18
2023-03-29T00:07:35.489Z,4.32
2023-03-29T00:10:04.618Z,4.72
2023-03-29T00:12:32.561Z,4.43
2023-03-29T00:15:00.340Z,4.90
2023-03-29T00:17:28.378Z,4.85
2023-03-29T00:19:55.743Z,4.47
2023-03-29T00:22:23.082Z,4.50
2023-03-29T00:24:54.271Z,5.22
2023-03-29T00:27:22.285Z,5.07
2023-03-29T00:29:49.613Z,4.88
2023-03-29T00:32:17.097Z,4.93
2023-03-29T00:34:46.054Z,4.63
2023-03-29T00:37:14.733Z,4.13
2023-03-29T00:39:42.320Z,4.28
2023-03-29T00:42:13.729Z,3.95
2023-03-29T00:45:16.188Z,4.05
2023-03-29T00:47:53.162Z,4.30
2023-03-29T00:50:31.819Z,4.40
2023-03-29T00:53:08.954Z,4.22
2023-03-29T00:55:55.432Z,4.22
2023-03-29T00:58:36.410Z,4.13
2023-03-29T01:01:19.369Z,3.90
2023-03-29T01:03:54.912Z,3.60
2023-03-29T01:06:27.149Z,3.72
2023-03-29T01:08:58.411Z,4.13
2023-03-29T01:11:43.987Z,4.00
2023-03-29T01:14:29.882Z,3.83
2023-03-29T01:16:58.114Z,3.83
2023-03-29T01:19:30.258Z,4.18
2023-03-29T01:22:39.126Z,4.20
2023-03-29T01:28:10.028Z,3.30
2023-03-29T01:30:43.736Z,3.97
2023-03-29T01:33:21.262Z,3.72
2023-03-29T01:36:11.760Z,3.63
2023-03-29T01:38:54.998Z,4.03
2023-03-29T01:41:26.685Z,4.30
2023-03-29T01:44:21.575Z,3.90
2023-03-29T01:46:58.723Z,3.78
2023-03-29T01:49:34.458Z,3.60
2023-03-29T01:52:08.221Z,4.10
2023-03-29T01:54:41.277Z,3.83
2023-03-29T01:57:10.621Z,4.13
2023-03-29T01:59:42.780Z,4.30
2023-03-29T02:02:14.736Z,4.05
2023-03-29T02:04:49.945Z,4.38
2023-03-29T02:07:21.002Z,4.50
2023-03-29T02:09:52.496Z,4.65
2023-03-29T02:12:20.590Z,4.25
2023-03-29T02:14:47.964Z,4.47
2023-03-29T02:17:23.886Z,4.80
2023-03-29T02:20:00.707Z,4.60
2023-03-29T02:22:33.392Z,4.40
2023-03-29T02:25:04.819Z,4.68
2023-03-29T02:27:32.084Z,4.53
2023-03-29T02:29:59.562Z,4.80
2023-03-29T02:32:35.089Z,4.82
2023-03-29T02:35:12.811Z,4.57
2023-03-29T02:37:44.190Z,4.72
2023-03-29T02:40:13.106Z,5.00
2023-03-29T02:42:43.763Z,4.57
2023-03-29T02:45:14.649Z,4.55
2023-03-29T02:47:46.892Z,5.30
2023-03-29T02:50:14.439Z,5.00
2023-03-29T02:52:52.971Z,5.13
2023-03-29T02:55:24.305Z,4.72
2023-03-29T02:57:51.751Z,5.30
2023-03-29T03:00:19.995Z,5.15
2023-03-29T03:02:48.619Z,5.53
2023-03-29T03:05:17.457Z,5.35
2023-03-29T03:07:46.090Z,5.05
2023-03-29T03:15:13.614Z,5.18
2023-03-29T03:17:41.789Z,5.13
2023-03-29T03:20:13.880Z,4.85
2023-03-29T03:22:48.696Z,4.70
2023-03-29T03:25:19.379Z,4.82
2023-03-29T03:27:48.438Z,4.13
2023-03-29T03:30:16.323Z,4.30
2023-03-29T03:33:06.872Z,4.45
2023-03-29T03:35:56.885Z,4.15
2023-03-29T03:38:24.608Z,4.63
2023-03-29T03:40:58.570Z,4.25
2023-03-29T03:43:27.133Z,4.22
2023-03-29T03:45:57.568Z,5.00
2023-03-29T03:48:26.070Z,4.47
2023-03-29T03:51:19.948Z,4.63
2023-03-29T03:53:48.321Z,4.55
2023-03-29T03:56:29.691Z,4.57
2023-03-29T03:59:15.847Z,5.10
2023-03-29T04:01:51.356Z,4.70
2023-03-29T04:04:22.225Z,4.63
2023-03-29T04:07:12.946Z,3.95
2023-03-29T04:09:56.362Z,4.50
2023-03-29T04:12:46.628Z,4.90
2023-03-29T04:15:13.988Z,3.80
2023-03-29T04:17:48.373Z,4.50
2023-03-29T04:20:27.318Z,4.35
2023-03-29T04:22:55.922Z,4.65
2023-03-29T04:25:23.738Z,4.72
2023-03-29T04:28:12.224Z,4.40
2023-03-29T04:30:49.075Z,4.60
2023-03-29T04:33:23.626Z,4.63
2023-03-29T04:35:59.005Z,4.07
2023-03-29T04:38:26.664Z,4.38
2023-03-29T04:40:55.685Z,4.68
2023-03-29T04:43:46.297Z,4.60
2023-03-29T04:46:27.050Z,4.93
2023-03-29T04:49:13.346Z,5.32
2023-03-29T04:51:43.939Z,4.88
2023-03-29T04:54:12.158Z,4.53
2023-03-29T04:57:08.117Z,4.50
2023-03-29T04:59:35.359Z,4.60
2023-03-29T05:02:08.565Z,4.25
2023-03-29T05:04:38.619Z,4.10
2023-03-29T05:07:13.112Z,4.60
2023-03-29T05:09:41.729Z,4.10
2023-03-29T05:12:10.176Z,4.15
2023-03-29T05:14:48.460Z,4.28
2023-03-29T05:17:16.466Z,4.70
2023-03-29T05:19:45.957Z,4.13
2023-03-29T05:22:15.307Z,3.80
2023-03-29T05:24:43.315Z,4.20
2023-03-29T05:27:17.550Z,4.50
2023-03-29T05:29:54.627Z,4.30
2023-03-29T05:35:11.644Z,4.25
2023-03-29T05:37:39.556Z,4.30
2023-03-29T05:40:10.068Z,4.43
2023-03-29T05:42:54.177Z,4.50
2023-03-29T05:45:22.987Z,4.45
2023-03-29T05:47:51.055Z,4.50
2023-03-29T05:50:18.572Z,4.72
2023-03-29T05:52:47.355Z,4.75
2023-03-29T05:55:14.843Z,4.53
2023-03-29T05:57:42.185Z,4.68
2023-03-29T06:00:21.788Z,5.43
2023-03-29T06:02:50.910Z,5.60
2023-03-29T06:05:20.247Z,5.20
2023-03-29T06:08:01.985Z,5.22
2023-03-29T06:10:44.171Z,5.75
2023-03-29T06:13:25.107Z,5.43
2023-03-29T06:15:53.308Z,6.20
2023-03-29T06:18:20.898Z,5.82
2023-03-29T06:20:50.825Z,5.97
2023-03-29T06:23:21.523Z,5.78
2023-03-29T06:25:51.446Z,6.00
2023-03-29T06:28:19.510Z,5.38
2023-03-29T06:30:48.218Z,5.85
2023-03-29T06:33:16.976Z,5.85
2023-03-29T06:35:51.360Z,5.40
2023-03-29T06:38:26.758Z,5.07
2023-03-29T06:41:32.136Z,5.80
2023-03-29T06:46:42.932Z,5.72
2023-03-29T06:49:10.488Z,5.90
2023-03-29T06:52:04.033Z,5.82
2023-03-29T06:54:31.698Z,6.60
2023-03-29T06:57:05.789Z,5.80
2023-03-29T06:59:35.015Z,6.00
2023-03-29T07:02:12.804Z,5.88
2023-03-29T07:04:48.707Z,5.97
2023-03-29T07:07:33.152Z,6.35
2023-03-29T07:10:12.962Z,6.65
2023-03-29T07:13:15.747Z,6.65
2023-03-29T07:15:44.870Z,5.93
2023-03-29T07:18:35.005Z,6.53
2023-03-29T07:21:02.847Z,5.93
2023-03-29T07:23:30.506Z,5.93
2023-03-29T07:25:58.022Z,6.03
2023-03-29T07:28:26.877Z,6.03
2023-03-29T07:31:02.459Z,5.90
2023-03-29T07:33:31.510Z,6.18
2023-03-29T07:36:03.417Z,6.55
2023-03-29T07:38:32.436Z,6.55
2023-03-29T07:41:08.157Z,5.95
2023-03-29T07:43:44.655Z,6.32
2023-03-29T07:46:14.108Z,6.35
2023-03-29T07:48:42.232Z,6.35
2023-03-29T07:51:11.830Z,6.78
2023-03-29T07:53:47.988Z,6.70
2023-03-29T07:56:41.548Z,6.30
2023-03-29T07:59:41.399Z,6.13
2023-03-29T08:02:13.334Z,6.38
2023-03-29T08:04:44.928Z,6.30
2023-03-29T08:07:19.035Z,6.60
2023-03-29T08:10:13.701Z,6.35
2023-03-29T08:13:09.338Z,6.70
2023-03-29T08:15:55.494Z,6.30
2023-03-29T08:18:34.716Z,6.53
2023-03-29T08:21:04.787Z,6.32
2023-03-29T08:23:32.618Z,5.90
2023-03-29T08:26:22.131Z,6.88
2023-03-29T08:28:50.788Z,6.53
2023-03-29T08:31:19.419Z,6.00
2023-03-29T08:33:46.808Z,6.55
2023-03-29T08:36:47.118Z,5.90
2023-03-29T08:39:23.082Z,6.85
2023-03-29T08:42:24.598Z,7.03
2023-03-29T08:45:10.044Z,7.20
2023-03-29T08:47:59.517Z,5.53
2023-03-29T08:50:40.836Z,6.75
2023-03-29T08:53:27.793Z,7.30
2023-03-29T08:56:16.440Z,6.80
2023-03-29T08:59:14.600Z,6.85
2023-03-29T09:01:42.574Z,6.63
2023-03-29T09:04:16.493Z,6.63
2023-03-29T09:07:11.129Z,6.80
2023-03-29T09:09:46.061Z,6.35
2023-03-29T09:12:52.761Z,6.47
2023-03-29T09:15:38.981Z,7.15
2023-03-29T09:18:38.859Z,6.60
2023-03-29T09:21:31.692Z,6.70
2023-03-29T09:24:28.876Z,6.30
2023-03-29T09:27:20.764Z,6.90
2023-03-29T09:30:04.711Z,6.97
2023-03-29T09:33:01.197Z,7.22
2023-03-29T09:35:53.774Z,6.72
2023-03-29T09:38:22.910Z,7.07
2023-03-29T09:40:57.212Z,6.82
2023-03-29T09:43:41.037Z,6.88
2023-03-29T09:46:40.569Z,6.03
2023-03-29T09:49:16.068Z,5.30
2023-03-29T09:51:49.088Z,5.28
2023-03-29T09:54:17.698Z,5.57
2023-03-29T09:57:03.790Z,5.97
2023-03-29T09:59:31.659Z,6.45
2023-03-29T10:02:11.882Z,6.30
2023-03-29T10:07:18.742Z,6.57
2023-03-29T10:09:51.848Z,6.45
2023-03-29T10:12:21.252Z,6.70
2023-03-29T10:14:53.466Z,5.97
2023-03-29T10:17:29.531Z,6.10
2023-03-29T10:20:04.027Z,6.43
2023-03-29T10:22:37.641Z,5.80
2023-03-29T10:25:13.265Z,5.20
2023-03-29T10:27:43.556Z,5.45
2023-03-29T10:30:18.867Z,6.07
2023-03-29T10:32:46.993Z,5.75
2023-03-29T10:35:22.543Z,6.20
2023-03-29T10:37:52.931Z,5.80
2023-03-29T10:40:29.317Z,5.97
2023-03-29T10:43:01.873Z,5.95
2023-03-29T10:45:34.044Z,6.30
2023-03-29T10:48:03.739Z,6.22
2023-03-29T10:50:35.903Z,5.75
2023-03-29T10:53:07.423Z,5.43
2023-03-29T10:55:41.742Z,5.90
2023-03-29T10:58:15.657Z,5.75
2023-03-29T11:00:53.962Z,4.95
2023-03-29T11:03:27.508Z,4.70
2023-03-29T11:06:07.668Z,4.38
2023-03-29T11:08:51.213Z,3.78
2023-03-29T11:12:01.248Z,4.90
2023-03-29T11:15:10.327Z,4.63
2023-03-29T11:17:43.517Z,4.85
2023-03-29T11:20:37.967Z,5.32
2023-03-29T11:23:07.973Z,5.60
2023-03-29T11:25:47.256Z,5.07
2023-03-29T11:28:19.605Z,5.28
2023-03-29T11:31:19.253Z,5.40
2023-03-29T11:34:00.277Z,5.15
2023-03-29T11:36:57.101Z,5.45
2023-03-29T11:39:27.036Z,5.20
2023-03-29T11:42:02.150Z,5.55
2023-03-29T11:44:31.380Z,4.80
2023-03-29T11:47:13.837Z,4.85
2023-03-29T11:50:00.551Z,4.32
2023-03-29T11:52:42.822Z,4.93
2023-03-29T11:55:13.425Z,4.72
2023-03-29T11:58:04.185Z,4.97
2023-03-29T12:00:37.439Z,4.22
2023-03-29T12:03:19.679Z,4.13
2023-03-29T12:05:58.159Z,3.97
2023-03-29T12:08:48.102Z,4.30
2023-03-29T12:11:33.345Z,4.07
2023-03-29T12:14:06.803Z,4.00
2023-03-29T12:16:48.921Z,3.60
2023-03-29T12:19:28.805Z,3.63
2023-03-29T12:21:58.139Z,3.58
2023-03-29T12:24:31.729Z,3.17
2023-03-29T12:27:31.738Z,3.70
2023-03-29T12:30:16.364Z,3.00
2023-03-29T12:32:57.462Z,3.10
2023-03-29T12:36:01.806Z,3.03
2023-03-29T12:38:51.194Z,3.40
2023-03-29T12:41:38.279Z,3.00
2023-03-29T12:44:25.852Z,3.00
2023-03-29T12:46:59.332Z,3.47
2023-03-29T12:49:37.610Z,3.35
2023-03-29T12:52:30.464Z,2.80
2023-03-29T12:55:00.849Z,2.95
2023-03-29T12:57:44.302Z,2.90
2023-03-29T13:00:42.297Z,2.95
2023-03-29T13:03:27.451Z,3.30
2023-03-29T13:06:12.482Z,3.08
2023-03-29T13:08:42.990Z,3.78
2023-03-29T13:11:31.251Z,3.28
2023-03-29T13:14:01.684Z,3.22
2023-03-29T13:16:34.722Z,3.33
2023-03-29T13:19:07.711Z,3.47
2023-03-29T13:21:53.883Z,2.80
2023-03-29T13:24:30.045Z,3.53
2023-03-29T13:27:27.487Z,3.38
2023-03-29T13:30:14.308Z,3.40
2023-03-29T13:33:06.456Z,3.47
2023-03-29T13:36:02.170Z,3.17
2023-03-29T13:38:35.553Z,3.35
2023-03-29T13:41:12.174Z,3.38
2023-03-29T13:43:52.689Z,3.08
2023-03-29T13:46:43.381Z,3.17
2023-03-29T13:49:27.048Z,3.53
2023-03-29T13:51:54.313Z,3.45
2023-03-29T13:54:45.883Z,3.10
2023-03-29T13:57:20.122Z,3.38
2023-03-29T14:00:17.734Z,3.83
2023-03-29T14:02:51.777Z,3.72
2023-03-29T14:05:29.333Z,3.50
2023-03-29T14:07:58.979Z,3.47
2023-03-29T14:10:33.279Z,3.38
2023-03-29T14:13:03.870Z,3.83
2023-03-29T14:15:44.023Z,3.20
2023-03-29T14:18:14.924Z,3.67
2023-03-29T14:20:53.519Z,3.28
2023-03-29T14:23:27.083Z,3.28
2023-03-29T14:25:54.336Z,3.28
2023-03-29T14:28:27.831Z,3.55
2023-03-29T14:30:56.199Z,3.50
2023-03-29T14:33:34.646Z,3.60
2023-03-29T14:36:04.164Z,3.88
2023-03-29T14:38:32.327Z,3.10
2023-03-29T14:41:01.092Z,3.22
2023-03-29T14:43:32.020Z,3.50
2023-03-29T14:46:02.865Z,4.00
2023-03-29T14:48:33.104Z,3.28
2023-03-29T14:51:01.048Z,3.58
2023-03-29T14:53:31.822Z,3.72
2023-03-29T14:55:59.660Z,4.30
2023-03-29T14:58:33.465Z,4.13
2023-03-29T15:01:16.080Z,3.58
2023-03-29T15:03:54.940Z,4.07
2023-03-29T15:06:24.888Z,3.85
2023-03-29T15:09:04.419Z,3.65
2023-03-29T15:11:33.961Z,3.20
2023-03-29T15:14:08.539Z,3.63
2023-03-29T15:16:45.059Z,3.22
2023-03-29T15:19:19.659Z,4.07
2023-03-29T15:21:51.174Z,3.55
2023-03-29T15:24:31.152Z,3.47
2023-03-29T15:27:19.613Z,2.90
2023-03-29T15:29:47.948Z,3.30
2023-03-29T15:32:31.519Z,3.10
2023-03-29T15:35:00.158Z,3.92
2023-03-29T15:37:28.015Z,3.08
2023-03-29T15:39:56.319Z,3.92
2023-03-29T15:42:24.718Z,4.28
2023-03-29T15:44:56.553Z,3.70
2023-03-29T15:47:24.224Z,3.38
2023-03-29T15:49:51.830Z,3.40
2023-03-29T15:52:19.161Z,3.42
2023-03-29T15:54:46.424Z,3.78
2023-03-29T15:57:16.201Z,3.80
2023-03-29T15:59:44.328Z,3.83
2023-03-29T16:02:16.551Z,3.65
2023-03-29T16:04:44.076Z,3.42
2023-03-29T16:07:17.071Z,3.63
2023-03-29T16:09:45.855Z,4.25
2023-03-29T16:12:13.501Z,3.80
2023-03-29T16:14:42.611Z,4.25
2023-03-29T16:17:10.807Z,3.70
2023-03-29T16:19:38.112Z,3.85
2023-03-29T16:22:07.173Z,4.07
2023-03-29T16:24:35.575Z,3.67
2023-03-29T16:27:03.700Z,3.92
2023-03-29T16:29:31.626Z,3.30
2023-03-29T16:31:59.319Z,4.00
2023-03-29T16:34:26.711Z,3.92
2023-03-29T16:36:54.133Z,4.20
2023-03-29T16:39:21.491Z,3.90
2023-03-29T16:41:50.019Z,4.22
2023-03-29T16:44:22.458Z,4.30
2023-03-29T16:46:53.587Z,3.75
2023-03-29T16:49:20.863Z,3.80
2023-03-29T16:51:48.592Z,3.67
2023-03-29T16:54:17.255Z,3.97
2023-03-29T16:56:44.545Z,4.82
2023-03-29T16:59:12.208Z,4.97
2023-03-29T17:01:40.582Z,4.63
2023-03-29T17:04:08.561Z,3.85
2023-03-29T17:06:36.006Z,4.03
2023-03-29T17:09:04.892Z,4.15
2023-03-29T17:11:32.560Z,4.20
2023-03-29T17:14:00.346Z,3.72
2023-03-29T17:16:29.137Z,4.40
2023-03-29T17:19:00.308Z,4.05
2023-03-29T17:21:29.130Z,4.25
2023-03-29T17:23:56.530Z,4.22
2023-03-29T17:26:24.229Z,3.95
2023-03-29T17:28:51.556Z,4.32
2023-03-29T17:31:19.354Z,4.35
2023-03-29T17:33:47.412Z,4.72
2023-03-29T17:36:14.962Z,3.97
2023-03-29T17:38:43.072Z,4.57
2023-03-29T17:41:10.975Z,4.10
2023-03-29T17:43:38.246Z,4.28
2023-03-29T17:46:06.098Z,4.10
2023-03-29T17:48:33.472Z,5.00
2023-03-29T17:51:00.786Z,4.38
2023-03-29T17:53:28.148Z,4.40
2023-03-29T17:55:55.400Z,4.35
2023-03-29T17:58:22.715Z,4.53
2023-03-29T18:00:50.350Z,5.10
2023-03-29T18:03:18.014Z,5.15
2023-03-29T18:05:45.508Z,4.82
2023-03-29T18:08:14.798Z,5.05
2023-03-29T18:10:42.085Z,4.00
2023-03-29T18:13:13.749Z,4.57
2023-03-29T18:15:41.409Z,4.88
2023-03-29T18:18:08.644Z,5.15
2023-03-29T18:20:35.968Z,5.05
2023-03-29T18:23:03.345Z,5.78
2023-03-29T18:25:30.604Z,5.50
2023-03-29T18:27:57.887Z,5.60
2023-03-29T18:30:28.904Z,5.00
2023-03-29T18:32:56.286Z,6.00
2023-03-29T18:35:23.737Z,6.22
2023-03-29T18:37:52.198Z,5.97
2023-03-29T18:40:24.439Z,5.60
2023-03-29T18:42:51.944Z,6.60
2023-03-29T18:45:19.469Z,6.28
2023-03-29T18:47:46.874Z,5.55
2023-03-29T18:50:14.274Z,7.53
2023-03-29T18:52:42.043Z,7.53
2023-03-29T18:55:10.215Z,5.65
2023-03-29T18:57:37.592Z,5.93
2023-03-29T19:00:10.537Z,5.53
2023-03-29T19:02:41.613Z,5.70
2023-03-29T19:05:09.501Z,6.05
2023-03-29T19:07:37.032Z,5.93
2023-03-29T19:10:07.314Z,6.47
2023-03-29T19:12:35.206Z,6.30
2023-03-29T19:15:02.537Z,6.38
2023-03-29T19:17:30.076Z,6.20
2023-03-29T19:19:57.498Z,6.43
2023-03-29T19:22:24.886Z,6.18
2023-03-29T19:24:52.227Z,7.00
2023-03-29T19:27:19.624Z,6.45
2023-03-29T19:29:48.062Z,5.50
2023-03-29T19:32:15.458Z,5.82
2023-03-29T19:34:42.712Z,6.35
2023-03-29T19:37:10.059Z,6.32
2023-03-29T19:39:37.377Z,6.63
2023-03-29T19:42:04.771Z,6.00
2023-03-29T19:44:32.047Z,6.13
2023-03-29T19:46:59.465Z,6.13
2023-03-29T19:49:27.191Z,5.97
2023-03-29T19:51:58.272Z,6.15
2023-03-29T19:54:26.615Z,5.40
2023-03-29T19:56:57.420Z,6.03
2023-03-29T19:59:26.839Z,6.32
2023-03-29T20:01:57.197Z,5.80
2023-03-29T20:04:25.634Z,6.88
2023-03-29T20:06:53.452Z,7.70
2023-03-29T20:09:20.890Z,6.85
2023-03-29T20:11:48.210Z,7.53
2023-03-29T20:14:15.957Z,7.40
2023-03-29T20:16:44.727Z,7.82
2023-03-29T20:19:14.105Z,7.95
2023-03-29T20:21:41.461Z,6.93
2023-03-29T20:24:09.242Z,8.15
2023-03-29T20:26:39.722Z,7.78
2023-03-29T20:29:07.245Z,9.07
2023-03-29T20:31:34.596Z,9.38
2023-03-29T20:34:02.026Z,8.50
2023-03-29T20:36:30.601Z,8.60
2023-03-29T20:38:59.154Z,12.82
2023-03-29T20:41:26.787Z,8.05
2023-03-29T20:44:00.312Z,8.52
2023-03-29T20:46:35.689Z,8.60
2023-03-29T20:49:05.559Z,8.95
2023-03-29T20:51:33.168Z,8.88
2023-03-29T20:54:05.894Z,8.93
2023-03-29T20:56:39.678Z,8.05
2023-03-29T20:59:10.507Z,8.13
2023-03-29T21:01:40.995Z,7.75
2023-03-29T21:04:10.598Z,7.28
2023-03-29T21:06:39.461Z,7.95
2023-03-29T21:09:07.214Z,8.40
2023-03-29T21:11:59.579Z,7.50
2023-03-29T21:14:26.997Z,7.63
2023-03-29T21:16:54.203Z,8.27
2023-03-29T21:19:21.468Z,8.40
2023-03-29T21:21:52.128Z,8.30
2023-03-29T21:24:19.555Z,8.55
2023-03-29T21:26:46.890Z,7.88
2023-03-29T21:29:14.173Z,7.70
2023-03-29T21:31:41.784Z,7.55
2023-03-29T21:34:09.101Z,9.00
2023-03-29T21:36:36.331Z,7.57
2023-03-29T21:39:04.017Z,7.75
2023-03-29T21:41:31.376Z,7.75
2023-03-29T21:43:58.594Z,7.93
2023-03-29T21:46:26.294Z,7.75
2023-03-29T21:48:53.778Z,7.55
2023-03-29T21:51:21.056Z,7.50
2023-03-29T21:53:48.315Z,7.43
2023-03-29T21:56:15.702Z,8.02
2023-03-29T21:58:43.016Z,8.05
2023-03-29T22:01:10.631Z,7.88
2023-03-29T22:03:38.489Z,7.78
2023-03-29T22:06:10.430Z,7.72
2023-03-29T22:08:43.310Z,7.22
2023-03-29T22:11:14.298Z,8.20
2023-03-29T22:13:43.122Z,9.07
2023-03-29T22:16:18.223Z,9.45
2023-03-29T22:18:49.581Z,10.30
2023-03-29T22:21:31.024Z,10.18
2023-03-29T22:24:00.108Z,8.57
2023-03-29T22:26:30.403Z,9.00
2023-03-29T22:28:59.425Z,8.60
2023-03-29T22:31:28.620Z,8.40
2023-03-29T22:33:56.271Z,8.30
2023-03-29T22:36:27.081Z,7.93
2023-03-29T22:38:54.841Z,8.45
2023-03-29T22:41:23.740Z,7.47
2023-03-29T22:43:52.597Z,7.38
2023-03-29T22:46:20.836Z,7.63
2023-03-29T22:48:48.627Z,7.25
2023-03-29T22:51:16.717Z,7.55
2023-03-29T22:53:43.976Z,7.70
2023-03-29T22:56:17.113Z,7.55
2023-03-29T22:58:44.780Z,7.88
2023-03-29T23:01:12.591Z,8.05
2023-03-29T23:03:39.841Z,7.30
2023-03-29T23:06:07.658Z,7.00
2023-03-29T23:08:35.267Z,7.25
2023-03-29T23:11:03.658Z,7.30
2023-03-29T23:13:31.171Z,7.45
2023-03-29T23:16:00.078Z,7.78
2023-03-29T23:18:30.192Z,7.60
2023-03-29T23:20:59.128Z,7.63
2023-03-29T23:23:27.188Z,7.13
2023-03-29T23:25:55.782Z,7.60
2023-03-29T23:28:27.023Z,15.25
2023-03-29T23:31:03.522Z,27.30
2023-03-29T23:33:36.264Z,20.63
2023-03-29T23:36:05.981Z,35.28
2023-03-29T23:38:35.474Z,21.23
2023-03-29T23:41:06.124Z,14.65
2023-03-29T23:43:37.145Z,8.82
2023-03-29T23:46:07.042Z,8.13
2023-03-29T23:48:34.689Z,7.63
2023-03-29T23:51:03.118Z,10.82
2023-03-29T23:53:31.442Z,8.07
2023-03-29T23:56:01.258Z,8.18
2023-03-29T23:58:33.692Z,7.30
